Turrell, Arkansas
Current Conditions -  °F | °C
As of 7:53 PM on Friday 21 Nov 2014 (Local Time) from KAWM Reporting Station
Overcast Overcast  
Wind Chill: 52°   Ceiling: 8000
Heat Index: 52°   Visibility: 10mi
Dew Point: 43°   Wind: 6mph
Humidity: 71%   Direction: 110°ESE
Pressure: 30.27"   Gusts: NA
Location:  35.38°N, 90.26°W
Report Text: KAWM 220153Z AUTO 11005KT 10SM OVC080 11/06 A3027 RMK AO2 RAE00B16E26 SLP250 P0000 T01110061
Loading
Personal Weather Stations






























Interactive Weather Map New forecast layout! Learn more

10-Day Weather Forecast

Advertisements
Track Severe Weather on mobile